Jj Sky — VRJA6 — position and weather

sailwx.info

Track history (hours):
 
Tides and Currents Weather Stations Pressure Air Temp Water Temp Dewpoint Dewpoint Depression Visibility Wind Speed Wind Dir Waves Ship Positions

Jj Sky

Last reported at 2017-Jan-17 02:32 UTC. Time now 2017-Jan-17 02:44 UTC.
Position N 34°37' E 135°02'.

Length 148 m; draft 7.3 m.

Type: Ship (hazmat cat D). MMSI: 477397500.

Date/timePositionNaut miles runAvg speedWind from/ knotsBaromVisibWave heightAir tempDewpointWater temp
2017-Jan-17 02:32N 34°37' E 135°02'10 9.5
2017-Jan-17 01:26N 34°39' E 135°15'0 0.0
2017-Jan-17 00:32N 34°39' E 135°15'0 0.0
2017-Jan-16 23:31N 34°39' E 135°15'0 0.0
2017-Jan-16 22:28N 34°39' E 135°15'8 8.3
2017-Jan-16 21:33N 34°39' E 135°24'0 0.4
2017-Jan-16 20:18N 34°39' E 135°24'0 0.0
2017-Jan-16 19:30N 34°39' E 135°24'0 0.1
2017-Jan-16 18:30N 34°39' E 135°24'0 0.1
2017-Jan-16 17:29N 34°39' E 135°24'0 0.1
2017-Jan-16 16:29N 34°39' E 135°24'0 0.0
2017-Jan-16 15:22N 34°39' E 135°24'0 0.0
2017-Jan-16 14:29N 34°39' E 135°24'0 0.0
2017-Jan-16 13:10N 34°39' E 135°24'0 0.0
2017-Jan-16 12:16N 34°39' E 135°24'0 0.0
2017-Jan-16 11:33N 34°39' E 135°24'0 0.0
2017-Jan-16 10:21N 34°39' E 135°24'0 0.0
2017-Jan-16 09:32N 34°39' E 135°24'0 0.0
2017-Jan-16 08:32N 34°39' E 135°24'0 0.0
2017-Jan-16 07:26N 34°39' E 135°24'0 0.0
2017-Jan-16 06:31N 34°39' E 135°24'0 0.0
2017-Jan-16 05:22N 34°39' E 135°24'0 0.0
2017-Jan-16 04:19N 34°39' E 135°24'0 0.0
2017-Jan-16 03:33N 34°39' E 135°24'0 0.0
2017-Jan-16 02:27N 34°39' E 135°24'0 0.0
2017-Jan-16 01:26N 34°39' E 135°24'0 0.0
2017-Jan-16 00:25N 34°39' E 135°24'0 0.0
2017-Jan-15 23:31N 34°39' E 135°24'0 0.0
2017-Jan-15 22:30N 34°39' E 135°24'3 3.1
2017-Jan-15 21:33N 34°37' E 135°22'8 8.0
2017-Jan-15 20:33N 34°35' E 135°12'8 7.5
2017-Jan-15 19:33N 34°36' E 135°03'1010.2
2017-Jan-15 18:31N 34°34' E 134°51'65913.7
2017-Jan-13 18:31N 31°06' E 122°27'1112.0
2017-Jan-13 17:33N 31°09' E 122°14'1414.0
2017-Jan-13 16:33N 31°15' E 121°59'1414.0
2017-Jan-13 15:33N 31°19' E 121°44'3 3.1
2017-Jan-13 14:33N 31°20' E 121°40'0 0.0
2017-Jan-13 13:29N 31°20' E 121°40'0 0.0
2017-Jan-13 12:32N 31°20' E 121°40'0 0.0
2017-Jan-13 11:28N 31°20' E 121°40'0 0.0
2017-Jan-13 10:28N 31°20' E 121°40'0 0.0
2017-Jan-13 09:31N 31°20' E 121°40'0 0.0
2017-Jan-13 08:33N 31°20' E 121°40'0 0.0
2017-Jan-13 07:33N 31°20' E 121°40'0 0.0
2017-Jan-13 06:32N 31°20' E 121°40'0 0.0
2017-Jan-13 05:32N 31°20' E 121°40'2 1.8
2017-Jan-13 04:33N 31°19' E 121°42'8 7.7
2017-Jan-13 03:33N 31°13' E 121°48'7 6.6
2017-Jan-13 02:33N 31°09' E 121°54'1010.2
2017-Jan-13 01:33N 31°04' E 122°05'11 9.9
2017-Jan-13 00:29N 31°03' E 122°17'  
2017-Jan-10 04:30N 34°33' E 134°46'1414.2
2017-Jan-10 03:32N 34°37' E 135°01'1212.5
2017-Jan-10 02:33N 34°39' E 135°16'1 1.3
2017-Jan-10 01:33N 34°39' E 135°15'0 0.0
2017-Jan-10 00:32N 34°39' E 135°15'0 0.0
2017-Jan-09 23:32N 34°39' E 135°15'0 0.0
2017-Jan-09 22:25N 34°39' E 135°15'2 2.0
2017-Jan-09 21:33N 34°38' E 135°16'2 1.6
2017-Jan-09 20:26N 34°37' E 135°14'0 0.0
2017-Jan-09 19:28N 34°37' E 135°14'0 0.0
2017-Jan-09 18:28N 34°37' E 135°14'0 0.0
2017-Jan-09 17:33N 34°37' E 135°14'0 0.0
2017-Jan-09 16:33N 34°37' E 135°14'0 0.0
2017-Jan-09 15:32N 34°37' E 135°14'0 0.0
2017-Jan-09 14:32N 34°37' E 135°14'0 0.0
2017-Jan-09 13:26N 34°37' E 135°14'0 0.0
2017-Jan-09 12:31N 34°37' E 135°14'0 0.0
2017-Jan-09 11:31N 34°37' E 135°14'0 0.0
2017-Jan-09 10:30N 34°37' E 135°14'0 0.0
2017-Jan-09 09:30N 34°37' E 135°14'0 0.0
2017-Jan-09 08:32N 34°37' E 135°14'0 0.0
2017-Jan-09 07:29N 34°37' E 135°14'0 0.0
2017-Jan-09 06:29N 34°37' E 135°14'0 0.0
2017-Jan-09 05:28N 34°37' E 135°14'4 4.7
2017-Jan-09 04:33N 34°37' E 135°19'5 4.6
2017-Jan-09 03:31N 34°39' E 135°24'0 0.0
2017-Jan-09 00:11N 34°39' E 135°24'0 0.0
2017-Jan-08 23:23N 34°39' E 135°24'0 0.0
2017-Jan-08 22:26N 34°39' E 135°24'1011.1
2017-Jan-08 21:33N 34°35' E 135°13'1313.4
2017-Jan-08 20:33N 34°36' E 134°57'1010.3
2017-Jan-08 19:33N 34°31' E 134°46'  
Track history (hours):
 
Tides and Currents Weather Stations Pressure Air Temp Water Temp Dewpoint Dewpoint Depression Visibility Wind Speed Wind Dir Waves Ship Positions

Jj Sky

Last reported at 2017-Jan-17 02:32 UTC. Time now 2017-Jan-17 02:44 UTC.
Position N 34°37' E 135°02'.

Length 148 m; draft 7.3 m.

Type: Ship (hazmat cat D). MMSI: 477397500.

Date/timePositionNaut miles runAvg speedWind from/ knotsBaromVisibWave heightAir tempDewpointWater temp
2017-Jan-17 02:32N 34°37' E 135°02'10 9.5
2017-Jan-17 01:26N 34°39' E 135°15'0 0.0
2017-Jan-17 00:32N 34°39' E 135°15'0 0.0
2017-Jan-16 23:31N 34°39' E 135°15'0 0.0
2017-Jan-16 22:28N 34°39' E 135°15'8 8.3
2017-Jan-16 21:33N 34°39' E 135°24'0 0.4
2017-Jan-16 20:18N 34°39' E 135°24'0 0.0
2017-Jan-16 19:30N 34°39' E 135°24'0 0.1
2017-Jan-16 18:30N 34°39' E 135°24'0 0.1
2017-Jan-16 17:29N 34°39' E 135°24'0 0.1
2017-Jan-16 16:29N 34°39' E 135°24'0 0.0
2017-Jan-16 15:22N 34°39' E 135°24'0 0.0
2017-Jan-16 14:29N 34°39' E 135°24'0 0.0
2017-Jan-16 13:10N 34°39' E 135°24'0 0.0
2017-Jan-16 12:16N 34°39' E 135°24'0 0.0
2017-Jan-16 11:33N 34°39' E 135°24'0 0.0
2017-Jan-16 10:21N 34°39' E 135°24'0 0.0
2017-Jan-16 09:32N 34°39' E 135°24'0 0.0
2017-Jan-16 08:32N 34°39' E 135°24'0 0.0
2017-Jan-16 07:26N 34°39' E 135°24'0 0.0
2017-Jan-16 06:31N 34°39' E 135°24'0 0.0
2017-Jan-16 05:22N 34°39' E 135°24'0 0.0
2017-Jan-16 04:19N 34°39' E 135°24'0 0.0
2017-Jan-16 03:33N 34°39' E 135°24'0 0.0
2017-Jan-16 02:27N 34°39' E 135°24'0 0.0
2017-Jan-16 01:26N 34°39' E 135°24'0 0.0
2017-Jan-16 00:25N 34°39' E 135°24'0 0.0
2017-Jan-15 23:31N 34°39' E 135°24'0 0.0
2017-Jan-15 22:30N 34°39' E 135°24'3 3.1
2017-Jan-15 21:33N 34°37' E 135°22'8 8.0
2017-Jan-15 20:33N 34°35' E 135°12'8 7.5
2017-Jan-15 19:33N 34°36' E 135°03'1010.2
2017-Jan-15 18:31N 34°34' E 134°51'65913.7
2017-Jan-13 18:31N 31°06' E 122°27'1112.0
2017-Jan-13 17:33N 31°09' E 122°14'1414.0
2017-Jan-13 16:33N 31°15' E 121°59'1414.0
2017-Jan-13 15:33N 31°19' E 121°44'3 3.1
2017-Jan-13 14:33N 31°20' E 121°40'0 0.0
2017-Jan-13 13:29N 31°20' E 121°40'0 0.0
2017-Jan-13 12:32N 31°20' E 121°40'0 0.0
2017-Jan-13 11:28N 31°20' E 121°40'0 0.0
2017-Jan-13 10:28N 31°20' E 121°40'0 0.0
2017-Jan-13 09:31N 31°20' E 121°40'0 0.0
2017-Jan-13 08:33N 31°20' E 121°40'0 0.0
2017-Jan-13 07:33N 31°20' E 121°40'0 0.0
2017-Jan-13 06:32N 31°20' E 121°40'0 0.0
2017-Jan-13 05:32N 31°20' E 121°40'2 1.8
2017-Jan-13 04:33N 31°19' E 121°42'8 7.7
2017-Jan-13 03:33N 31°13' E 121°48'7 6.6
2017-Jan-13 02:33N 31°09' E 121°54'1010.2
2017-Jan-13 01:33N 31°04' E 122°05'11 9.9
2017-Jan-13 00:29N 31°03' E 122°17'  
2017-Jan-10 04:30N 34°33' E 134°46'1414.2
2017-Jan-10 03:32N 34°37' E 135°01'1212.5
2017-Jan-10 02:33N 34°39' E 135°16'1 1.3
2017-Jan-10 01:33N 34°39' E 135°15'0 0.0
2017-Jan-10 00:32N 34°39' E 135°15'0 0.0
2017-Jan-09 23:32N 34°39' E 135°15'0 0.0
2017-Jan-09 22:25N 34°39' E 135°15'2 2.0
2017-Jan-09 21:33N 34°38' E 135°16'2 1.6
2017-Jan-09 20:26N 34°37' E 135°14'0 0.0
2017-Jan-09 19:28N 34°37' E 135°14'0 0.0
2017-Jan-09 18:28N 34°37' E 135°14'0 0.0
2017-Jan-09 17:33N 34°37' E 135°14'0 0.0
2017-Jan-09 16:33N 34°37' E 135°14'0 0.0
2017-Jan-09 15:32N 34°37' E 135°14'0 0.0
2017-Jan-09 14:32N 34°37' E 135°14'0 0.0
2017-Jan-09 13:26N 34°37' E 135°14'0 0.0
2017-Jan-09 12:31N 34°37' E 135°14'0 0.0
2017-Jan-09 11:31N 34°37' E 135°14'0 0.0
2017-Jan-09 10:30N 34°37' E 135°14'0 0.0
2017-Jan-09 09:30N 34°37' E 135°14'0 0.0
2017-Jan-09 08:32N 34°37' E 135°14'0 0.0
2017-Jan-09 07:29N 34°37' E 135°14'0 0.0
2017-Jan-09 06:29N 34°37' E 135°14'0 0.0
2017-Jan-09 05:28N 34°37' E 135°14'4 4.7
2017-Jan-09 04:33N 34°37' E 135°19'5 4.6
2017-Jan-09 03:31N 34°39' E 135°24'0 0.0
2017-Jan-09 00:11N 34°39' E 135°24'0 0.0
2017-Jan-08 23:23N 34°39' E 135°24'0 0.0
2017-Jan-08 22:26N 34°39' E 135°24'1011.1
2017-Jan-08 21:33N 34°35' E 135°13'1313.4
2017-Jan-08 20:33N 34°36' E 134°57'1010.3
2017-Jan-08 19:33N 34°31' E 134°46'  

Dump ship's entire track history